Airfield :
LOGIN :

Register | Disclaimer

   EN    FR    IT 

 










Legend :    VFR   Marginal VFR   IFR   Intensive IFR   Very Intensive IFR
Visi :
Ceiling :
>= 8 km
>= 3000ft
5 to 8 km
1000 to 3000 ft
1500m to 5 km
500 to 1000 ft
800 to 1500m
200 to 500 ft
< 800m
< 200 ft
Symbols :   Thunderstorms  Fog  Heavy snow  Heavy precipitations  Wind > 20 kt
SIGMETs :     Misc.  Thunderstorms  Icing  Turbulence  Mountain Waves  Volcanic Ashes






- Airport Elevation : 352 ft
- IATA code : ARW


LRAR - Arad International

CURRENT METAR :
  • 110630Z 04007KT 9999 BKN043 03/01 Q1019

EXPIRED METARs :
  • 110600Z 03007KT 9999 BKN042 03/00 Q1019
  • 110530Z 02007KT 9999 SCT040 03/00 Q1019
  • 110500Z 03006KT 360V060 9999 BKN039 03/M00 Q1019
  • 110430Z 03008KT 9999 BKN040 03/M00 Q1019
  • 110400Z 03008KT 9999 BKN040 03/M00 Q1019

TAF TAF LRAR
Valid from the 11 at 06:00 until the 11 at 15:00 UTC


110500Z 1106/1115 03008KT 9999 BKN040



MET'MAP, your aeronautical weather chart ! - Copyright ORBIFLY December 2007 - Disclaimer

ORBIFLY MET'MAP TEAM :

Programming & Development : Alexandra Zaïnal
Concept & original design : Baudouin d'Aumeries
Assistance for programming : Marc-Olivier Méhu
Technical & hardware support : Manuel Goepfert

Contact : metmap@orbifly.com




SOURCES & CREDITS :

   NOAA